Elburg, Netherlands
Current Conditions -  °F | °C
As of 11:55 PM on Monday 24 Nov 2014 (Local Time) from EHDL Reporting Station
Few Clouds Few Clouds  
Wind Chill: 34°   Ceiling: Unl
Heat Index: 34°   Visibility: 6mi
Dew Point: 32°   Wind: 1mph
Humidity: 93%   Direction: 120°ESE
Pressure: 30.33"   Gusts: NA
Location:  52.45°N, 5.84°E
Report Text: EHDL 242255Z AUTO 12001KT 9999 FEW100 01/00 Q1027 BLU
Loading
Personal Weather Stations






























Interactive Weather Map New forecast layout! Learn more

10-Day Weather Forecast

Advertisements
Track Severe Weather on mobile